Prescott, Arizona
Current Conditions -  °F | °C
As of 7:53 AM on Friday 31 Oct 2014 (Local Time) from KPRC Reporting Station
Few Clouds Few Clouds  
Wind Chill: 56°   Ceiling: Unl
Heat Index: 56°   Visibility: 10mi
Dew Point: 32°   Wind: 3mph
Humidity: 40%   Direction: 300°WNW
Pressure: 30.12"   Gusts: NA
Location:  34.54°N, 112.47°W
Report Text: KPRC 311453Z 30003KT 10SM FEW120 13/00 A3012 RMK AO2 SLP146 T01330000 52000
Loading
Personal Weather Stations






























Interactive Weather Map New forecast layout! Learn more

10-Day Weather Forecast

Advertisements
Track Severe Weather on mobile